Rotterdam, Netherlands

4:21 AM CET on February 10, 2016 (GMT +0100)
Orchidee | | Change Station
CLOSE
Current Station
Personal Weather Station
Location: Rotterdam, ZUID-HOLLAND
Elevation: 4 ft
Nearby Weather Stations

Elev 4 ft 51.94 °N, 4.47 °E | Updated 36 seconds ago

Light Rain
Light Rain Drizzle
41.4 °F
Feels Like 41 °F
N
0.0
Wind Variable Wind from NNE
Gusts 0.0 mph

Today
High -- | Low -- °F
--% Chance of Precip.
Yesterday
High -- | Low -- °F
Precip. -- in
Pressure 29.21 in
Visibility 6.2 miles
Clouds Few 700 ft
Scattered Clouds 900 ft
Overcast 1000 ft
Windchill 41 °F
Dew Point 37 °F
Humidity 85%
Rainfall 0.65 in
Snow Depth Not available.
8:07 AM 5:45 PM
Waxing Crescent, 3% visible
SPECI EHGR 100308Z AUTO 22011KT 180V290 9999 -RADZ FEW007 SCT009 OVC010 04/02 Q0989 GRN
Pressure 29.21 in
Visibility 6.2 miles
Clouds Few 700 ft
Scattered Clouds 900 ft
Overcast 1000 ft
Windchill 41 °F
Dew Point 37 °F
Humidity 85%
Rainfall 0.65 in
Snow Depth Not available.
8:07 AM 5:45 PM
Waxing Crescent, 3% visible
SPECI EHGR 100308Z AUTO 22011KT 180V290 9999 -RADZ FEW007 SCT009 OVC010 04/02 Q0989 GRN

10-Day Weather Forecast

Almanac

Astronomy

Feb. 10, 2016 Rise Set
Actual Time
Civil Twilight
Nautical Twilight
Astronomical Twilight
Moon
Length of Visible Light
Length of Day
Tomorrow will be .
, % of the Moon is Illuminated

Today's Extremes

Country Highs Country Lows

Community

WunderPhotos

Upload Photos

1,891,792 photos uploaded!

WunderBlog® & News

Nearby

Air Quality

  Air Quality AQ Index Pollutant
Not available.

Snow Depth

Station Depth Elevation

Earthquake Activity

City Distance Mag. Time & Date
Minimum magnitude displayed is 2.5.

Coastal Water Temperatures

Place Temperature

Stations

Nearby Weather Stations

Station Location Temp. Windchill Dew Point Humidity Wind Precip. Elev Updated Type